Apple Valley, North Dakota
Current Conditions -  °F | °C
As of 9:52 PM on Friday 31 Oct 2014 (Local Time) from KBIS Reporting Station
Clear Clear  
Wind Chill: 21°   Ceiling: Unl
Heat Index: 33°   Visibility: 10mi
Dew Point: 15°   Wind: 22mph
Humidity: 48%   Direction: 160°SSE
Pressure: 30.14"   Gusts: NA
Location:  46.8954°N, 100.519°W
Report Text: KBIS 010252Z 16019KT 10SM CLR 01/M09 A3014 RMK AO2 PK WND 15026/0207 SLP230 T00061094 58018
Loading
Personal Weather Stations






























Interactive Weather Map
Tropical Storm Tracking
New forecast layout! Learn more

10-Day Weather Forecast

Advertisements
Track Severe Weather on mobile